createdAt,value
2018-11-23T00:01:15.482Z,-0.30
2018-11-23T00:03:44.477Z,-0.40
2018-11-23T00:06:13.126Z,-0.40
2018-11-23T00:08:42.039Z,-0.40
2018-11-23T00:11:10.223Z,-0.40
2018-11-23T00:13:38.453Z,-0.40
2018-11-23T00:16:06.970Z,-0.50
2018-11-23T00:18:35.729Z,-0.50
2018-11-23T00:21:04.009Z,-0.50
2018-11-23T00:23:32.203Z,-0.50
2018-11-23T00:26:00.654Z,-0.50
2018-11-23T00:28:28.938Z,-0.60
2018-11-23T00:30:57.168Z,-0.60
2018-11-23T00:33:25.693Z,-0.50
2018-11-23T00:35:53.961Z,-0.60
2018-11-23T00:38:22.147Z,-0.60
2018-11-23T00:40:50.368Z,-0.60
2018-11-23T00:43:18.863Z,-0.60
2018-11-23T00:45:47.094Z,-0.60
2018-11-23T00:48:15.302Z,-0.60
2018-11-23T00:50:43.500Z,-0.60
2018-11-23T00:53:11.681Z,-0.60
2018-11-23T00:55:39.883Z,-0.60
2018-11-23T00:58:08.072Z,-0.60
2018-11-23T01:00:36.298Z,-0.70
2018-11-23T01:03:05.469Z,-0.60
2018-11-23T01:05:33.676Z,-0.60
2018-11-23T01:08:01.891Z,-0.60
2018-11-23T01:10:30.681Z,-0.60
2018-11-23T01:12:59.070Z,-0.60
2018-11-23T01:15:27.325Z,-0.60
2018-11-23T01:17:55.506Z,-0.60
2018-11-23T01:20:25.038Z,-0.60
2018-11-23T01:22:53.803Z,-0.50
2018-11-23T01:25:23.029Z,-0.50
2018-11-23T01:27:52.484Z,-0.40
2018-11-23T01:30:25.102Z,-0.40
2018-11-23T01:32:53.287Z,-0.30
2018-11-23T01:35:21.496Z,-0.30
2018-11-23T01:37:49.730Z,-0.30
2018-11-23T01:40:19.337Z,-0.30
2018-11-23T01:42:47.792Z,-0.40
2018-11-23T01:45:16.288Z,-0.40
2018-11-23T01:47:44.500Z,-0.40
2018-11-23T01:50:15.652Z,-0.40
2018-11-23T01:52:44.909Z,-0.40
2018-11-23T01:55:13.997Z,-0.40
2018-11-23T01:57:42.552Z,-0.40
2018-11-23T02:00:13.425Z,-0.40
2018-11-23T02:02:41.650Z,-0.40
2018-11-23T02:05:10.278Z,-0.40
2018-11-23T02:07:38.887Z,-0.40
2018-11-23T02:10:07.909Z,-0.40
2018-11-23T02:12:36.257Z,-0.40
2018-11-23T02:15:05.017Z,-0.40
2018-11-23T02:17:33.198Z,-0.30
2018-11-23T02:20:01.378Z,-0.30
2018-11-23T02:22:29.590Z,-0.30
2018-11-23T02:24:57.797Z,-0.30
2018-11-23T02:27:26.018Z,-0.30
2018-11-23T02:29:54.223Z,-0.30
2018-11-23T02:32:22.402Z,-0.30
2018-11-23T02:34:50.612Z,-0.30
2018-11-23T02:37:18.802Z,-0.20
2018-11-23T02:39:46.990Z,-0.20
2018-11-23T02:42:15.197Z,-0.10
2018-11-23T02:44:43.961Z,-0.10
2018-11-23T02:47:12.215Z,-0.10
2018-11-23T02:49:40.375Z,0.00
2018-11-23T02:52:08.574Z,0.10
2018-11-23T02:54:36.755Z,0.10
2018-11-23T02:57:05.517Z,0.20
2018-11-23T02:59:33.695Z,0.20
2018-11-23T03:02:01.920Z,0.30
2018-11-23T03:04:30.181Z,0.30
2018-11-23T03:06:58.339Z,0.40
2018-11-23T03:09:26.541Z,0.40
2018-11-23T03:11:56.802Z,0.40
2018-11-23T03:19:11.809Z,0.30
2018-11-23T03:21:40.002Z,0.30
2018-11-23T03:24:08.175Z,0.30
2018-11-23T03:26:36.390Z,0.30
2018-11-23T03:29:04.922Z,0.30
2018-11-23T03:31:33.149Z,0.30
2018-11-23T03:34:01.311Z,0.30
2018-11-23T03:36:29.510Z,0.30
2018-11-23T03:38:57.672Z,0.30
2018-11-23T03:41:25.881Z,0.40
2018-11-23T03:43:54.553Z,0.40
2018-11-23T03:46:22.769Z,0.50
2018-11-23T03:48:50.942Z,0.50
2018-11-23T03:51:19.150Z,0.50
2018-11-23T03:53:47.348Z,0.60
2018-11-23T03:56:15.570Z,0.60
2018-11-23T03:58:43.759Z,0.70
2018-11-23T04:01:12.054Z,0.70
2018-11-23T04:03:40.225Z,0.80
2018-11-23T04:06:08.426Z,0.80
2018-11-23T04:08:36.645Z,0.90
2018-11-23T04:11:05.074Z,0.90
2018-11-23T04:13:33.283Z,0.90
2018-11-23T04:16:02.278Z,0.90
2018-11-23T04:18:30.518Z,1.00
2018-11-23T04:21:01.515Z,1.00
2018-11-23T04:23:30.896Z,1.00
2018-11-23T04:25:59.205Z,1.00
2018-11-23T04:28:27.497Z,1.10
2018-11-23T04:30:55.903Z,1.10
2018-11-23T04:33:24.618Z,1.10
2018-11-23T04:35:53.894Z,1.10
2018-11-23T04:38:22.157Z,1.10
2018-11-23T04:40:50.358Z,1.10
2018-11-23T04:43:18.548Z,1.20
2018-11-23T04:45:46.726Z,1.20
2018-11-23T04:48:14.990Z,1.20
2018-11-23T04:50:43.154Z,1.10
2018-11-23T04:53:11.377Z,1.10
2018-11-23T04:55:39.538Z,1.10
2018-11-23T04:58:07.828Z,1.10
2018-11-23T05:00:36.013Z,1.10
2018-11-23T05:03:04.198Z,1.10
2018-11-23T05:05:32.409Z,1.10
2018-11-23T05:08:00.569Z,1.10
2018-11-23T05:10:28.733Z,1.10
2018-11-23T05:12:56.894Z,1.20
2018-11-23T05:15:25.042Z,1.20
2018-11-23T05:17:53.207Z,1.20
2018-11-23T05:20:21.338Z,1.20
2018-11-23T05:22:49.512Z,1.20
2018-11-23T05:25:18.665Z,1.10
2018-11-23T05:27:46.875Z,1.10
2018-11-23T05:30:17.595Z,1.10
2018-11-23T05:32:45.767Z,1.10
2018-11-23T05:35:14.881Z,1.10
2018-11-23T05:37:43.058Z,1.10
2018-11-23T05:40:13.329Z,1.10
2018-11-23T05:42:41.522Z,1.10
2018-11-23T05:45:12.438Z,1.10
2018-11-23T05:47:40.596Z,1.00
2018-11-23T05:50:11.768Z,1.00
2018-11-23T05:52:40.266Z,1.00
2018-11-23T05:55:08.639Z,1.00
2018-11-23T05:57:36.796Z,0.90
2018-11-23T06:00:07.666Z,0.90
2018-11-23T06:02:35.906Z,0.90
2018-11-23T06:05:04.285Z,0.90
2018-11-23T06:07:32.513Z,0.90
2018-11-23T06:10:00.668Z,0.90
2018-11-23T06:12:28.810Z,0.80
2018-11-23T06:14:56.993Z,0.80
2018-11-23T06:17:25.138Z,0.80
2018-11-23T06:19:53.292Z,0.80
2018-11-23T06:22:21.530Z,0.80
2018-11-23T06:24:49.703Z,0.80
2018-11-23T06:27:17.840Z,0.80
2018-11-23T06:29:46.081Z,0.70
2018-11-23T06:32:25.764Z,0.70
2018-11-23T06:34:53.954Z,0.70
2018-11-23T06:37:22.310Z,0.70
2018-11-23T06:39:50.478Z,0.70
2018-11-23T06:42:19.686Z,0.70
2018-11-23T06:44:47.894Z,0.70
2018-11-23T06:47:16.036Z,0.70
2018-11-23T06:49:44.935Z,0.60
2018-11-23T06:52:13.129Z,0.60
2018-11-23T06:54:41.289Z,0.60
2018-11-23T06:57:09.445Z,0.60
2018-11-23T06:59:37.617Z,0.60
2018-11-23T07:02:06.018Z,0.60
2018-11-23T07:04:34.285Z,0.60
2018-11-23T07:07:02.443Z,0.60
2018-11-23T07:09:30.592Z,0.60
2018-11-23T07:12:00.095Z,0.60
2018-11-23T07:14:28.266Z,0.60
2018-11-23T07:16:56.497Z,0.60
2018-11-23T07:19:25.155Z,0.60
2018-11-23T07:21:53.352Z,0.50
2018-11-23T07:24:21.665Z,0.60
2018-11-23T07:26:49.810Z,0.60
2018-11-23T07:29:18.092Z,0.60
2018-11-23T07:31:46.280Z,0.60
2018-11-23T07:34:14.518Z,0.60
2018-11-23T07:36:42.679Z,0.60
2018-11-23T07:39:22.220Z,0.60
2018-11-23T07:42:32.834Z,0.60
2018-11-23T07:45:01.002Z,0.60
2018-11-23T07:47:29.157Z,0.70
2018-11-23T07:49:57.333Z,0.70
2018-11-23T07:52:25.465Z,0.80
2018-11-23T07:54:53.758Z,0.80
2018-11-23T07:57:21.893Z,0.80
2018-11-23T07:59:50.271Z,0.80
2018-11-23T08:02:18.407Z,0.90
2018-11-23T08:04:46.585Z,0.90
2018-11-23T08:07:14.723Z,0.90
2018-11-23T08:09:42.901Z,1.00
2018-11-23T08:12:11.051Z,1.10
2018-11-23T08:14:39.226Z,1.20
2018-11-23T08:17:07.377Z,1.20
2018-11-23T08:19:35.571Z,1.30
2018-11-23T08:22:03.781Z,1.40
2018-11-23T08:24:31.990Z,1.50
2018-11-23T08:27:00.117Z,1.60
2018-11-23T08:29:28.312Z,1.70
2018-11-23T08:31:56.502Z,1.80
2018-11-23T08:34:24.717Z,2.00
2018-11-23T08:36:52.854Z,2.10
2018-11-23T08:39:21.505Z,2.20
2018-11-23T08:41:49.644Z,2.40
2018-11-23T08:44:17.839Z,2.50
2018-11-23T08:46:46.004Z,2.70
2018-11-23T08:49:14.142Z,2.80
2018-11-23T08:51:42.362Z,3.00
2018-11-23T08:54:10.493Z,3.20
2018-11-23T08:56:38.769Z,3.30
2018-11-23T08:59:07.129Z,3.50
2018-11-23T09:01:35.284Z,3.70
2018-11-23T09:04:03.457Z,3.90
2018-11-23T09:06:31.634Z,4.00
2018-11-23T09:08:59.778Z,4.20
2018-11-23T09:11:28.149Z,4.40
2018-11-23T09:13:56.603Z,4.60
2018-11-23T09:16:24.820Z,4.90
2018-11-23T09:18:53.084Z,5.20
2018-11-23T09:21:22.301Z,5.50
2018-11-23T09:23:50.594Z,5.80
2018-11-23T09:26:18.789Z,6.10
2018-11-23T09:28:46.971Z,6.30
2018-11-23T09:31:15.132Z,6.50
2018-11-23T09:33:43.283Z,6.70
2018-11-23T09:36:11.453Z,6.90
2018-11-23T09:38:39.797Z,7.00
2018-11-23T09:41:07.972Z,7.30
2018-11-23T09:43:36.749Z,7.50
2018-11-23T09:46:05.674Z,7.60
2018-11-23T09:48:33.808Z,7.70
2018-11-23T09:51:02.006Z,7.80
2018-11-23T09:53:31.233Z,7.80
2018-11-23T09:55:59.796Z,8.00
2018-11-23T09:58:28.012Z,8.00
2018-11-23T10:00:56.183Z,8.00
2018-11-23T10:03:24.722Z,8.00
2018-11-23T10:05:52.883Z,8.10
2018-11-23T10:08:21.020Z,8.10
2018-11-23T10:10:49.204Z,8.30
2018-11-23T10:13:17.892Z,8.50
2018-11-23T10:15:46.078Z,8.80
2018-11-23T10:18:14.266Z,9.20
2018-11-23T10:20:42.455Z,9.70
2018-11-23T10:23:10.621Z,10.20
2018-11-23T10:25:38.790Z,10.70
2018-11-23T10:28:06.925Z,11.10
2018-11-23T10:30:38.370Z,11.30
2018-11-23T10:33:07.211Z,11.40
2018-11-23T10:35:35.384Z,11.30
2018-11-23T10:38:04.412Z,11.10
2018-11-23T10:40:35.075Z,10.90
2018-11-23T10:43:03.222Z,10.70
2018-11-23T10:45:32.613Z,10.60
2018-11-23T10:48:01.883Z,10.40
2018-11-23T10:50:31.465Z,10.30
2018-11-23T10:52:59.658Z,10.30
2018-11-23T10:55:32.894Z,10.30
2018-11-23T10:58:02.767Z,10.30
2018-11-23T11:00:37.062Z,10.30
2018-11-23T11:03:10.633Z,10.30
2018-11-23T11:05:44.875Z,10.30
2018-11-23T11:08:14.042Z,10.30
2018-11-23T11:10:43.186Z,10.20
2018-11-23T11:13:13.457Z,10.20
2018-11-23T11:15:42.519Z,10.20
2018-11-23T11:18:10.802Z,10.20
2018-11-23T11:20:39.526Z,10.20
2018-11-23T11:23:08.174Z,10.20
2018-11-23T11:25:36.350Z,10.20
2018-11-23T11:28:05.045Z,10.30
2018-11-23T11:30:33.229Z,10.20
2018-11-23T11:33:01.443Z,10.20
2018-11-23T11:35:29.658Z,10.30
2018-11-23T11:37:59.813Z,10.30
2018-11-23T11:40:27.969Z,10.50
2018-11-23T11:42:56.182Z,10.60
2018-11-23T11:45:24.369Z,10.90
2018-11-23T11:47:53.145Z,11.20
2018-11-23T11:50:21.311Z,11.30
2018-11-23T11:52:49.548Z,11.40
2018-11-23T11:55:19.019Z,11.50
2018-11-23T11:57:47.640Z,11.40
2018-11-23T12:00:18.275Z,11.40
2018-11-23T12:02:47.470Z,11.40
2018-11-23T12:05:15.646Z,11.60
2018-11-23T12:07:43.826Z,12.00
2018-11-23T12:10:14.962Z,12.40
2018-11-23T12:12:43.152Z,12.70
2018-11-23T12:15:12.277Z,12.80
2018-11-23T12:17:40.912Z,12.80
2018-11-23T12:20:12.397Z,12.70
2018-11-23T12:22:40.693Z,12.50
2018-11-23T12:25:08.925Z,12.50
2018-11-23T12:27:37.110Z,12.40
2018-11-23T12:30:08.777Z,12.30
2018-11-23T12:32:37.059Z,12.10
2018-11-23T12:35:06.548Z,12.10
2018-11-23T12:37:34.742Z,12.00
2018-11-23T12:40:02.964Z,11.90
2018-11-23T12:42:31.182Z,11.90
2018-11-23T12:44:59.355Z,11.80
2018-11-23T12:47:27.566Z,11.70
2018-11-23T12:49:56.374Z,11.70
2018-11-23T12:52:39.430Z,11.70
2018-11-23T12:55:08.162Z,11.70
2018-11-23T12:57:36.449Z,11.70
2018-11-23T13:00:07.234Z,11.70
2018-11-23T13:02:35.441Z,11.70
2018-11-23T13:05:03.606Z,11.70
2018-11-23T13:07:31.805Z,11.60
2018-11-23T13:09:59.941Z,11.70
2018-11-23T13:12:28.150Z,11.70
2018-11-23T13:14:56.287Z,11.60
2018-11-23T13:17:24.646Z,11.60
2018-11-23T13:19:52.782Z,11.60
2018-11-23T13:22:20.956Z,11.50
2018-11-23T13:24:49.180Z,11.40
2018-11-23T13:27:18.019Z,11.30
2018-11-23T13:29:49.738Z,11.20
2018-11-23T13:32:18.160Z,11.10
2018-11-23T13:34:46.405Z,11.00
2018-11-23T13:37:14.559Z,11.00
2018-11-23T13:39:43.085Z,10.90
2018-11-23T13:42:11.214Z,10.90
2018-11-23T13:44:39.421Z,10.80
2018-11-23T13:47:07.591Z,10.70
2018-11-23T13:49:35.797Z,10.60
2018-11-23T13:52:04.997Z,10.50
2018-11-23T13:54:33.202Z,10.50
2018-11-23T13:57:01.687Z,10.40
2018-11-23T13:59:29.837Z,10.30
2018-11-23T14:01:58.042Z,10.20
2018-11-23T14:04:26.204Z,10.20
2018-11-23T14:06:54.410Z,10.10
2018-11-23T14:09:22.561Z,10.00
2018-11-23T14:11:50.770Z,10.00
2018-11-23T14:14:18.963Z,9.90
2018-11-23T14:16:47.183Z,9.90
2018-11-23T14:19:15.326Z,9.80
2018-11-23T14:21:43.569Z,9.80
2018-11-23T14:24:11.709Z,9.70
2018-11-23T14:26:39.909Z,9.70
2018-11-23T14:29:08.042Z,9.60
2018-11-23T14:31:36.230Z,9.60
2018-11-23T14:34:09.933Z,9.60
2018-11-23T14:36:38.124Z,9.50
2018-11-23T14:39:07.811Z,9.40
2018-11-23T14:41:36.093Z,9.40
2018-11-23T14:44:06.911Z,9.30
2018-11-23T14:46:32.425Z,9.30
2018-11-23T14:49:00.592Z,9.30
2018-11-23T14:51:28.777Z,9.20
2018-11-23T14:53:56.905Z,9.20
2018-11-23T14:56:25.096Z,9.20
2018-11-23T14:58:53.226Z,8.70
2018-11-23T15:01:21.416Z,9.10
2018-11-23T15:03:49.550Z,9.10
2018-11-23T15:06:17.686Z,9.10
2018-11-23T15:08:45.882Z,9.00
2018-11-23T15:11:14.022Z,9.00
2018-11-23T15:13:42.259Z,8.90
2018-11-23T15:16:10.392Z,8.80
2018-11-23T15:18:38.587Z,8.80
2018-11-23T15:21:06.973Z,8.70
2018-11-23T15:23:35.162Z,8.60
2018-11-23T15:26:03.315Z,8.50
2018-11-23T15:28:31.506Z,8.40
2018-11-23T15:30:59.698Z,8.30
2018-11-23T15:33:27.893Z,8.30
2018-11-23T15:35:56.046Z,8.20
2018-11-23T15:38:24.985Z,8.10
2018-11-23T15:40:53.105Z,8.10
2018-11-23T15:43:21.633Z,8.00
2018-11-23T15:45:49.771Z,7.90
2018-11-23T15:50:44.844Z,7.90
2018-11-23T15:53:14.470Z,7.70
2018-11-23T15:55:42.761Z,7.70
2018-11-23T15:58:13.086Z,7.60
2018-11-23T16:00:45.613Z,7.60
2018-11-23T16:03:14.662Z,7.50
2018-11-23T16:05:42.853Z,7.40
2018-11-23T16:08:13.119Z,7.40
2018-11-23T16:11:12.132Z,7.40
2018-11-23T16:13:41.161Z,7.30
2018-11-23T16:16:09.302Z,7.20
2018-11-23T16:18:37.505Z,7.20
2018-11-23T16:21:05.865Z,7.10
2018-11-23T16:23:34.085Z,7.00
2018-11-23T16:26:02.945Z,7.00
2018-11-23T16:28:31.156Z,6.90
2018-11-23T16:30:59.781Z,6.90
2018-11-23T16:33:27.966Z,6.80
2018-11-23T16:35:56.128Z,6.80
2018-11-23T16:38:24.917Z,6.70
2018-11-23T16:40:54.471Z,6.70
2018-11-23T16:43:22.689Z,6.60
2018-11-23T16:45:50.830Z,6.50
2018-11-23T16:48:19.865Z,6.50
2018-11-23T16:50:48.026Z,6.40
2018-11-23T16:53:18.122Z,6.30
2018-11-23T16:55:46.274Z,6.30
2018-11-23T16:58:14.866Z,6.20
2018-11-23T17:00:44.265Z,6.10
2018-11-23T17:03:16.991Z,6.10
2018-11-23T17:05:48.488Z,6.00
2018-11-23T17:08:16.731Z,5.90
2018-11-23T17:10:45.015Z,5.80
2018-11-23T17:13:13.276Z,5.70
2018-11-23T17:15:41.634Z,5.60
2018-11-23T17:18:10.079Z,5.60
2018-11-23T17:20:39.345Z,5.50
2018-11-23T17:23:08.470Z,5.40
2018-11-23T17:25:36.669Z,5.30
2018-11-23T17:28:06.628Z,5.20
2018-11-23T17:30:35.671Z,5.20
2018-11-23T17:33:04.083Z,5.10
2018-11-23T17:35:32.333Z,5.10
2018-11-23T17:38:00.812Z,5.00
2018-11-23T17:40:30.751Z,4.70
2018-11-23T17:42:59.394Z,4.90
2018-11-23T17:45:29.681Z,4.90
2018-11-23T17:47:58.263Z,4.80
2018-11-23T17:50:27.757Z,4.70
2018-11-23T17:52:56.125Z,4.70
2018-11-23T17:55:24.318Z,4.70
2018-11-23T17:57:53.513Z,4.60
2018-11-23T18:00:27.958Z,4.60
2018-11-23T18:02:56.645Z,4.60
2018-11-23T18:05:25.689Z,4.50
2018-11-23T18:07:53.889Z,4.50
2018-11-23T18:10:23.285Z,4.50
2018-11-23T18:12:51.797Z,4.50
2018-11-23T18:15:24.146Z,4.40
2018-11-23T18:17:53.246Z,4.40
2018-11-23T18:20:22.557Z,4.30
2018-11-23T18:22:51.747Z,4.30
2018-11-23T18:25:23.987Z,4.30
2018-11-23T18:28:06.638Z,4.20
2018-11-23T18:30:34.965Z,4.20
2018-11-23T18:33:07.129Z,4.10
2018-11-23T18:35:35.431Z,4.10
2018-11-23T18:38:03.640Z,4.10
2018-11-23T18:40:37.109Z,4.00
2018-11-23T18:43:00.539Z,4.00
2018-11-23T18:45:28.733Z,3.90
2018-11-23T18:47:56.903Z,3.90
2018-11-23T18:50:25.112Z,3.90
2018-11-23T18:52:53.262Z,3.80
2018-11-23T18:55:21.454Z,5.10
2018-11-23T18:57:49.606Z,3.80
2018-11-23T19:00:18.028Z,3.80
2018-11-23T19:02:47.043Z,3.80
2018-11-23T19:05:18.338Z,3.70
2018-11-23T19:07:46.576Z,3.70
2018-11-23T19:10:14.876Z,3.70
2018-11-23T19:12:43.150Z,3.70
2018-11-23T19:15:14.929Z,3.70
2018-11-23T19:17:43.142Z,3.60
2018-11-23T19:20:12.471Z,3.60
2018-11-23T19:23:11.302Z,3.60
2018-11-23T19:25:39.524Z,3.50
2018-11-23T19:28:07.732Z,3.50
2018-11-23T19:30:35.881Z,3.50
2018-11-23T19:33:04.099Z,3.50
2018-11-23T19:35:32.250Z,3.40
2018-11-23T19:38:00.462Z,3.40
2018-11-23T19:40:28.801Z,3.40
2018-11-23T19:42:57.055Z,3.30
2018-11-23T19:45:25.645Z,3.30
2018-11-23T19:47:54.566Z,3.30
2018-11-23T19:50:22.701Z,3.20
2018-11-23T19:52:50.913Z,3.20
2018-11-23T19:55:19.054Z,3.20
2018-11-23T19:57:47.263Z,3.20
2018-11-23T20:00:23.278Z,3.10
2018-11-23T20:02:51.548Z,3.10
2018-11-23T20:05:20.927Z,3.00
2018-11-23T20:07:50.425Z,3.00
2018-11-23T20:10:19.305Z,3.00
2018-11-23T20:12:48.459Z,2.90
2018-11-23T20:15:19.532Z,2.90
2018-11-23T20:17:47.877Z,2.90
2018-11-23T20:20:17.772Z,2.80
2018-11-23T20:22:47.845Z,2.80
2018-11-23T20:25:18.782Z,2.70
2018-11-23T20:27:49.693Z,2.70
2018-11-23T20:30:19.398Z,2.70
2018-11-23T20:32:48.778Z,2.70
2018-11-23T20:35:20.112Z,2.60
2018-11-23T20:37:50.139Z,2.60
2018-11-23T20:40:22.028Z,2.60
2018-11-23T20:42:51.715Z,2.50
2018-11-23T20:45:21.699Z,2.50
2018-11-23T20:47:50.967Z,2.50
2018-11-23T20:50:20.624Z,2.50
2018-11-23T20:52:49.939Z,2.40
2018-11-23T20:55:23.384Z,2.40
2018-11-23T20:57:52.699Z,2.40
2018-11-23T21:00:21.264Z,2.40
2018-11-23T21:02:51.910Z,2.40
2018-11-23T21:05:21.971Z,2.40
2018-11-23T21:07:51.472Z,2.40
2018-11-23T21:10:25.319Z,2.30
2018-11-23T21:12:56.149Z,2.30
2018-11-23T21:15:28.027Z,2.30
2018-11-23T21:17:58.037Z,2.20
2018-11-23T21:20:27.888Z,2.20
2018-11-23T21:22:57.575Z,2.20
2018-11-23T21:25:26.856Z,2.10
2018-11-23T21:27:56.776Z,2.10
2018-11-23T21:30:25.963Z,2.10
2018-11-23T21:32:56.403Z,2.10
2018-11-23T21:35:25.751Z,2.00
2018-11-23T21:37:55.081Z,2.00
2018-11-23T21:40:23.264Z,2.00
2018-11-23T21:42:51.463Z,2.00
2018-11-23T21:45:20.054Z,1.90
2018-11-23T21:47:49.516Z,1.90
2018-11-23T21:50:24.867Z,1.90
2018-11-23T21:52:46.813Z,1.90
2018-11-23T21:55:17.974Z,1.90
2018-11-23T21:57:46.135Z,1.80
2018-11-23T22:00:15.059Z,1.80
2018-11-23T22:02:43.195Z,1.80
2018-11-23T22:05:11.496Z,1.80
2018-11-23T22:07:39.637Z,1.70
2018-11-23T22:10:11.174Z,1.70
2018-11-23T22:12:39.320Z,1.70
2018-11-23T22:15:10.190Z,0.90
2018-11-23T22:17:38.385Z,1.70
2018-11-23T22:20:10.629Z,1.70
2018-11-23T22:22:38.788Z,1.70
2018-11-23T22:25:08.764Z,1.70
2018-11-23T22:27:36.935Z,1.70
2018-11-23T22:30:08.845Z,1.60
2018-11-23T22:32:36.978Z,1.70
2018-11-23T22:35:06.347Z,1.60
2018-11-23T22:37:34.609Z,1.60
2018-11-23T22:40:02.950Z,1.60
2018-11-23T22:42:31.102Z,1.60
2018-11-23T22:44:59.317Z,1.60
2018-11-23T22:47:27.463Z,1.60
2018-11-23T22:49:55.693Z,1.60
2018-11-23T22:52:24.067Z,1.60
2018-11-23T22:54:52.265Z,1.60
2018-11-23T22:57:20.442Z,1.60
2018-11-23T22:59:48.627Z,1.60
2018-11-23T23:02:16.770Z,1.60
2018-11-23T23:04:44.958Z,1.60
2018-11-23T23:07:13.097Z,1.60
2018-11-23T23:09:41.278Z,1.60
2018-11-23T23:12:09.417Z,1.60
2018-11-23T23:14:37.606Z,1.60
2018-11-23T23:17:05.760Z,1.60
2018-11-23T23:19:33.925Z,1.60
2018-11-23T23:22:02.074Z,1.60
2018-11-23T23:24:30.229Z,1.60
2018-11-23T23:26:58.372Z,1.60
2018-11-23T23:29:26.550Z,1.60
2018-11-23T23:31:54.697Z,1.60
2018-11-23T23:34:22.846Z,1.60
2018-11-23T23:36:51.035Z,1.60
2018-11-23T23:39:19.181Z,1.60
2018-11-23T23:41:47.391Z,1.60
2018-11-23T23:44:15.527Z,1.60
2018-11-23T23:46:43.721Z,1.60
2018-11-23T23:49:11.864Z,1.60
2018-11-23T23:51:40.039Z,1.60
2018-11-23T23:54:08.181Z,1.60
2018-11-23T23:56:36.354Z,1.60
2018-11-23T23:59:04.726Z,1.60
